LTAU/ASR METAR and TAF weather

Enter ICAO airport designator
Station Type Date Time Source
LTAU METAR 2022/01/18 07:50 UTC NOAA

LTAU 180750Z 00000KT 9999 SCT040 BKN090 M02/M08 Q1014 BECMG 26012KT


Station Type Date Time Source
LTAU Decoded METAR 2022/01/18 07:50 UTC NOAA

Kayseri / Erkilet, Turkey (LTAU) 38-47N 035-29E 1054M
Jan 18, 2022 - 02:50 AM EST / 2022.01.18 0750 UTC
Wind: Calm:0
Visibility: greater than 7 mile(s):0
Sky conditions: mostly cloudy
Temperature: 28 F (-2 C)
Dew Point: 17 F (-8 C)
Relative Humidity: 63%
Pressure (altimeter): 29.94 in. Hg (1014 hPa)
ob: LTAU 180750Z 00000KT 9999 SCT040 BKN090 M02/M08 Q1014 BECMG 26012KT
cycle: 8

Station Type Date Time Source
LTAU TAF 2022/01/18 06:03 UTC NOAA

TAF LTAU 180440Z 1806/1906 VRB02KT 8000 FEW040 BKN090
BECMG 1806/1808 26012KT SCT012 BKN025 OVC070
BECMG 1808/1811 4000-SN BR
TEMPO 1813/1817 0700 +SN BKN002 OVC025
TEMPO 1817/1820 1200 SN BKN002 OVC025
BECMG 1817/1819 VRB02KT
BECMG 1822/1901 SCT040

Example: see airport list